Time;durP1;ratioP1;P1;durP2;ratioP2;P2;SDS_P1;SDS_P2;PMS_P1;PMS_P2;Temp;Humidity;BMP_temperature;BMP_pressure;BME280_temperature;BME280_humidity;BME280_pressure;Samples;Min_cycle;Max_cycle;Signal;HPM_P1;HPM_P2
2022/10/12 00:01:59;;;;;;;2.53;1.38;;;;;;;10.60;95.65;101896.78;5027000;28;20060;-63
2022/10/12 00:04:24;;;;;;;3.42;1.60;;;;;;;10.63;95.88;101893.44;5031658;28;20108;-64
2022/10/12 00:06:49;;;;;;;3.22;1.52;;;;;;;10.70;95.86;101901.03;5028003;28;20043;-64
2022/10/12 00:09:15;;;;;;;1.45;1.25;;;;;;;10.72;95.59;101896.88;5030893;28;20386;-63
2022/10/12 00:11:43;;;;;;;4.75;1.65;;;;;;;10.68;96.13;101901.31;5024311;28;20037;-64
2022/10/12 00:14:08;;;;;;;1.60;1.50;;;;;;;10.66;96.20;101902.78;5027985;28;20076;-64
2022/10/12 00:16:34;;;;;;;3.28;1.67;;;;;;;10.72;96.13;101901.50;5018933;28;20057;-64
2022/10/12 00:19:00;;;;;;;2.70;1.30;;;;;;;10.75;95.31;101900.81;5027754;28;20083;-64
2022/10/12 00:21:27;;;;;;;2.13;1.33;;;;;;;10.74;95.16;101899.25;5030558;28;20476;-64
2022/10/12 00:23:56;;;;;;;2.42;1.50;;;;;;;10.76;95.23;101908.56;5023912;28;20160;-63
2022/10/12 00:26:25;;;;;;;2.60;1.65;;;;;;;10.67;95.43;101897.06;5026305;28;20025;-64
2022/10/12 00:28:56;;;;;;;1.73;1.40;;;;;;;10.63;95.94;101892.63;5030204;28;20029;-64
2022/10/12 00:31:22;;;;;;;2.20;1.38;;;;;;;10.63;96.05;101893.44;5030019;28;20037;-63
2022/10/12 00:33:48;;;;;;;4.05;1.88;;;;;;;10.66;95.33;101898.19;5026266;28;20394;-64
2022/10/12 00:36:17;;;;;;;5.22;1.50;;;;;;;10.67;95.76;101894.38;5027687;28;20052;-64
2022/10/12 00:38:43;;;;;;;6.40;1.50;;;;;;;10.66;96.08;101892.81;5030689;28;20029;-64
2022/10/12 00:41:10;;;;;;;1.75;1.20;;;;;;;10.68;96.72;101895.16;5030009;28;20458;-64
2022/10/12 00:43:38;;;;;;;4.68;1.40;;;;;;;10.65;96.84;101891.22;5028242;28;20714;-64
2022/10/12 00:46:12;;;;;;;2.63;1.15;;;;;;;10.74;96.76;101894.63;5029835;28;20033;-64
2022/10/12 00:48:38;;;;;;;3.22;1.63;;;;;;;10.69;97.02;101896.72;5029678;28;20132;-64
2022/10/12 00:51:04;;;;;;;3.03;1.30;;;;;;;10.71;96.83;101895.31;5025117;28;20033;-63
2022/10/12 00:53:36;;;;;;;9.52;1.90;;;;;;;10.74;96.87;101893.88;5024083;28;20030;-64
2022/10/12 00:56:11;;;;;;;1.95;1.40;;;;;;;10.84;97.19;101896.16;5029481;28;20025;-64
2022/10/12 00:58:37;;;;;;;1.60;1.50;;;;;;;11.08;96.71;101898.25;5027614;28;20537;-64
2022/10/12 01:01:04;;;;;;;6.60;1.83;;;;;;;11.17;95.96;101899.00;5025174;28;20124;-64
2022/10/12 01:03:31;;;;;;;1.98;1.38;;;;;;;11.21;95.36;101903.41;5030133;28;20075;-64
2022/10/12 01:05:56;;;;;;;6.00;1.45;;;;;;;11.19;95.55;101908.34;5025976;28;20033;-64
2022/10/12 01:08:22;;;;;;;2.70;1.48;;;;;;;11.09;95.82;101907.94;5027931;28;20055;-63
2022/10/12 01:10:47;;;;;;;2.35;1.63;;;;;;;11.05;95.85;101899.72;5029034;28;20433;-64
2022/10/12 01:13:13;;;;;;;3.25;1.23;;;;;;;11.05;95.98;101898.94;5029435;28;20094;-64
2022/10/12 01:15:52;;;;;;;4.32;1.63;;;;;;;10.99;95.84;101898.34;5027756;28;20421;-64
2022/10/12 01:18:24;;;;;;;1.60;1.00;;;;;;;10.93;96.53;101896.13;5030647;28;20087;-64
2022/10/12 01:21:08;;;;;;;2.47;1.27;;;;;;;10.97;96.15;101888.97;5029406;28;20037;-64
2022/10/12 01:23:55;;;;;;;5.72;1.40;;;;;;;11.05;96.34;101901.63;5023643;28;20063;-64
2022/10/12 01:26:58;;;;;;;3.20;1.42;;;;;;;11.01;96.39;101893.41;5026912;28;20029;-64
2022/10/12 01:29:42;;;;;;;3.78;1.48;;;;;;;10.99;97.67;101897.53;5022196;28;20481;-65
2022/10/12 01:32:16;;;;;;;2.75;1.50;;;;;;;10.99;97.90;101886.75;5025727;28;20075;-65
2022/10/12 01:34:53;;;;;;;2.90;1.27;;;;;;;11.18;97.36;101881.69;5029947;28;20025;-65
2022/10/12 01:37:30;;;;;;;3.08;1.50;;;;;;;11.36;97.02;101886.63;5003929;28;20146;-65
2022/10/12 01:39:59;;;;;;;1.25;1.02;;;;;;;11.50;96.82;101889.06;5018380;28;20029;-65
2022/10/12 01:42:39;;;;;;;4.65;1.50;;;;;;;11.56;96.30;101890.44;5029477;28;20052;-65
2022/10/12 01:45:16;;;;;;;2.63;1.17;;;;;;;11.47;96.25;101878.94;5023360;28;20033;-65
2022/10/12 01:47:51;;;;;;;2.22;1.35;;;;;;;11.58;96.83;101880.09;5026388;28;20033;-64
2022/10/12 01:50:20;;;;;;;3.13;2.15;;;;;;;11.54;96.80;101874.59;5028561;28;20429;-65
2022/10/12 01:53:04;;;;;;;4.57;1.40;;;;;;;11.42;96.94;101876.47;5033326;23;20030;-64
2022/10/12 01:55:32;;;;;;;1.63;1.45;;;;;;;11.43;97.57;101876.13;5003018;28;20045;-65
2022/10/12 01:58:14;;;;;;;2.60;1.27;;;;;;;11.54;96.78;101873.78;5008876;28;20485;-65
2022/10/12 02:00:46;;;;;;;4.38;1.48;;;;;;;11.59;96.92;101871.69;4987376;28;20038;-65
2022/10/12 02:03:22;;;;;;;1.73;1.13;;;;;;;11.62;96.22;101872.94;5015383;28;20064;-64
2022/10/12 02:05:52;;;;;;;4.00;1.33;;;;;;;11.62;96.92;101870.22;5029674;28;20611;-64
2022/10/12 02:08:36;;;;;;;5.15;1.80;;;;;;;11.59;96.52;101870.91;5029886;28;20413;-64
2022/10/12 02:11:05;;;;;;;1.52;1.00;;;;;;;11.57;96.91;101873.94;5020450;28;21797;-64
2022/10/12 02:13:34;;;;;;;2.60;1.27;;;;;;;11.56;97.34;101871.56;5030320;28;20147;-64
2022/10/12 02:16:03;;;;;;;3.13;1.73;;;;;;;11.55;97.61;101870.00;5029218;28;20034;-64
2022/10/12 02:18:29;;;;;;;6.65;1.75;;;;;;;11.57;98.37;101868.56;5033810;28;20037;-65
2022/10/12 02:20:58;;;;;;;3.58;1.67;;;;;;;11.66;98.31;101871.19;5029175;28;20474;-64
2022/10/12 02:23:24;;;;;;;3.97;1.60;;;;;;;11.70;97.90;101866.69;5031601;28;20041;-64
2022/10/12 02:25:56;;;;;;;3.10;1.10;;;;;;;11.69;98.65;101871.31;5033435;28;20033;-64
2022/10/12 02:28:22;;;;;;;;;;;;;;;11.76;98.33;101865.38;5025503;28;20044;-64
2022/10/12 02:31:14;;;;;;;2.08;1.13;;;;;;;11.85;97.85;101859.88;5020779;28;19920;-64
2022/10/12 02:33:59;;;;;;;1.70;1.20;;;;;;;11.88;97.74;101860.03;5032814;28;20041;-65
2022/10/12 02:36:46;;;;;;;3.80;1.40;;;;;;;11.84;97.65;101851.00;5031761;28;20041;-64
2022/10/12 02:39:19;;;;;;;4.60;1.35;;;;;;;11.93;97.92;101846.31;5025212;28;20037;-64
2022/10/12 02:41:48;;;;;;;2.17;1.33;;;;;;;11.95;97.42;101852.16;5032178;28;20092;-64
2022/10/12 02:44:21;;;;;;;1.98;1.50;;;;;;;11.96;98.06;101848.34;5026774;28;20401;-65
2022/10/12 02:46:48;;;;;;;2.47;1.45;;;;;;;11.99;98.30;101841.47;5027962;28;20037;-64
2022/10/12 02:49:16;;;;;;;3.42;1.75;;;;;;;12.01;97.79;101840.03;5016599;28;20077;-64
2022/10/12 02:51:43;;;;;;;5.13;1.55;;;;;;;11.97;98.07;101833.72;5022425;28;20030;-64
2022/10/12 02:54:08;;;;;;;2.90;1.38;;;;;;;12.00;98.25;101837.66;5030245;28;20383;-64
2022/10/12 02:56:40;;;;;;;3.72;1.05;;;;;;;12.08;97.90;101836.78;5031619;28;20044;-64
2022/10/12 02:59:06;;;;;;;9.57;1.85;;;;;;;12.10;98.00;101837.25;5031919;28;20041;-64
2022/10/12 03:01:31;;;;;;;1.40;0.93;;;;;;;12.07;98.35;101830.59;5024762;28;20036;-65
2022/10/12 03:03:56;;;;;;;2.90;1.10;;;;;;;12.09;97.88;101833.75;5032717;28;20052;-64
2022/10/12 03:06:22;;;;;;;3.22;1.48;;;;;;;12.12;98.14;101826.88;5028349;28;20042;-66
2022/10/12 03:08:48;;;;;;;2.22;1.02;;;;;;;12.18;97.67;101828.22;5026882;28;20482;-65
2022/10/12 03:11:13;;;;;;;2.95;1.13;;;;;;;12.25;98.20;101833.88;5038586;28;20076;-64
2022/10/12 03:13:39;;;;;;;1.85;1.40;;;;;;;12.19;97.51;101832.53;5029623;28;20037;-64
2022/10/12 03:16:07;;;;;;;1.63;1.08;;;;;;;12.20;98.53;101829.47;5032520;28;20108;-64
2022/10/12 03:18:33;;;;;;;3.60;1.00;;;;;;;12.25;97.93;101831.19;5030859;28;20084;-64
2022/10/12 03:20:59;;;;;;;1.75;1.08;;;;;;;12.22;98.14;101839.94;5027876;28;20037;-64
2022/10/12 03:23:25;;;;;;;8.18;1.13;;;;;;;12.30;98.15;101837.16;5032271;28;20466;-65
2022/10/12 03:25:50;;;;;;;2.42;1.27;;;;;;;12.30;98.25;101837.16;5028318;28;20048;-64
2022/10/12 03:28:16;;;;;;;3.08;1.17;;;;;;;12.29;97.93;101832.84;5032265;28;20507;-65
2022/10/12 03:30:42;;;;;;;3.13;1.58;;;;;;;12.37;97.54;101840.06;5030763;28;20033;-65
2022/10/12 03:33:07;;;;;;;1.13;1.00;;;;;;;12.36;97.44;101833.09;5030571;28;20466;-65
2022/10/12 03:35:33;;;;;;;2.05;1.10;;;;;;;12.32;97.75;101840.28;5031375;28;20044;-64
2022/10/12 03:37:58;;;;;;;2.25;1.20;;;;;;;12.32;97.71;101836.78;5032773;28;20021;-65
2022/10/12 03:40:24;;;;;;;1.70;1.25;;;;;;;12.28;98.64;101834.00;5028036;28;20602;-65
2022/10/12 03:42:49;;;;;;;2.25;0.90;;;;;;;12.36;97.91;101837.69;5030770;28;20034;-65
2022/10/12 03:45:17;;;;;;;4.15;1.38;;;;;;;12.34;98.36;101838.03;5032027;28;20108;-65
2022/10/12 03:47:43;;;;;;;2.25;1.52;;;;;;;12.31;98.82;101836.00;5032776;28;20045;-65
2022/10/12 03:50:08;;;;;;;6.32;1.52;;;;;;;12.40;98.51;101836.69;5026498;28;20044;-65
2022/10/12 03:52:34;;;;;;;5.70;1.50;;;;;;;12.44;98.35;101837.59;5032403;28;20115;-65
2022/10/12 03:54:59;;;;;;;2.03;1.50;;;;;;;12.45;98.35;101835.66;5031937;28;20099;-65
2022/10/12 03:57:25;;;;;;;3.78;1.50;;;;;;;12.39;97.96;101832.41;5030242;28;20495;-65
2022/10/12 03:59:50;;;;;;;2.72;1.10;;;;;;;12.47;98.15;101831.50;5026910;28;20036;-65
2022/10/12 04:02:16;;;;;;;6.30;1.73;;;;;;;12.47;97.77;101839.63;5022564;28;20035;-65
2022/10/12 04:04:41;;;;;;;2.30;1.15;;;;;;;12.55;97.69;101833.31;5028913;28;20042;-65
2022/10/12 04:07:07;;;;;;;2.85;1.35;;;;;;;12.54;97.61;101842.53;5031851;28;20071;-65
2022/10/12 04:09:32;;;;;;;1.88;1.20;;;;;;;12.52;97.65;101833.97;5027113;28;20075;-65
2022/10/12 04:11:58;;;;;;;2.28;1.33;;;;;;;12.49;97.68;101834.66;5021771;28;20022;-65
2022/10/12 04:14:26;;;;;;;3.88;1.15;;;;;;;12.48;97.54;101835.81;5016402;28;20406;-65
2022/10/12 04:16:54;;;;;;;1.30;0.85;;;;;;;12.51;97.21;101826.22;5019551;28;20040;-65
2022/10/12 04:19:20;;;;;;;3.78;1.25;;;;;;;12.44;97.46;101829.50;5020137;28;20040;-65
2022/10/12 04:21:45;;;;;;;2.15;0.88;;;;;;;12.45;97.71;101824.88;5031098;28;20037;-65
2022/10/12 04:24:11;;;;;;;4.07;1.58;;;;;;;12.44;98.09;101823.31;5023381;28;20807;-65
2022/10/12 04:26:37;;;;;;;4.75;1.35;;;;;;;12.44;98.35;101826.81;5031614;28;20489;-65
2022/10/12 04:29:02;;;;;;;2.00;1.33;;;;;;;12.49;98.31;101833.88;5031693;28;20398;-65
2022/10/12 04:31:28;;;;;;;1.70;1.02;;;;;;;12.51;97.84;101826.22;5023159;28;20083;-65
2022/10/12 04:33:55;;;;;;;1.92;1.13;;;;;;;12.52;98.23;101825.09;5025179;28;20116;-65
2022/10/12 04:36:22;;;;;;;1.73;1.50;;;;;;;12.50;97.84;101825.41;5022025;28;20033;-65
2022/10/12 04:38:48;;;;;;;2.97;1.00;;;;;;;12.55;98.37;101825.22;5031458;28;20033;-65
2022/10/12 04:41:13;;;;;;;6.47;0.88;;;;;;;12.58;98.18;101832.63;5025268;28;20451;-65
2022/10/12 04:43:39;;;;;;;5.82;1.80;;;;;;;12.57;97.50;101825.66;5024853;28;20045;-65
2022/10/12 04:46:04;;;;;;;2.08;1.08;;;;;;;12.57;97.30;101825.66;5031146;28;20041;-65
2022/10/12 04:48:30;;;;;;;2.65;1.13;;;;;;;12.52;97.55;101817.75;5031763;28;20048;-65
2022/10/12 04:50:55;;;;;;;1.58;1.20;;;;;;;12.54;97.75;101823.63;5026179;28;20481;-65
2022/10/12 04:53:20;;;;;;;2.45;0.98;;;;;;;12.53;97.89;101830.16;5030802;28;20072;-65
2022/10/12 04:55:46;;;;;;;2.22;1.10;;;;;;;12.50;97.73;101820.03;5031315;28;20421;-65
2022/10/12 04:58:12;;;;;;;2.85;1.05;;;;;;;12.47;97.69;101818.00;5022571;28;20044;-65
2022/10/12 05:00:37;;;;;;;2.97;1.00;;;;;;;12.44;98.07;101821.41;5017159;28;20037;-65
2022/10/12 05:03:04;;;;;;;2.03;1.20;;;;;;;12.49;97.83;101823.84;5028853;28;20039;-64
2022/10/12 05:05:30;;;;;;;1.77;1.10;;;;;;;12.49;97.86;101823.06;5030512;28;20104;-65
2022/10/12 05:07:55;;;;;;;7.00;1.25;;;;;;;12.42;97.82;101817.44;5031325;28;20788;-64
2022/10/12 05:10:20;;;;;;;1.60;1.50;;;;;;;12.37;98.17;101817.66;5019781;28;20036;-65
2022/10/12 05:12:46;;;;;;;3.90;1.10;;;;;;;12.36;98.00;101816.88;5030595;28;20383;-65
2022/10/12 05:15:11;;;;;;;3.22;1.17;;;;;;;12.31;98.51;101811.69;5030485;28;20398;-65
2022/10/12 05:17:37;;;;;;;2.28;1.20;;;;;;;12.34;98.29;101816.44;5025082;28;20345;-65
2022/10/12 05:20:03;;;;;;;4.10;1.05;;;;;;;12.28;98.45;101812.38;5022946;28;20544;-64
2022/10/12 05:22:30;;;;;;;2.97;1.00;;;;;;;12.24;98.39;101819.56;5028492;28;20556;-65
2022/10/12 05:24:55;;;;;;;7.93;1.30;;;;;;;12.25;98.61;101821.13;5030871;28;20140;-64
2022/10/12 05:27:21;;;;;;;5.18;1.60;;;;;;;12.13;97.86;101818.44;5019691;28;20713;-65
2022/10/12 05:29:47;;;;;;;1.80;1.08;;;;;;;12.18;98.26;101825.53;5019894;28;20041;-65
2022/10/12 05:32:12;;;;;;;7.78;1.08;;;;;;;12.21;97.50;101820.25;5028701;28;20420;-65
2022/10/12 05:34:37;;;;;;;4.82;1.58;;;;;;;12.04;97.97;101815.03;5030350;28;20029;-65
2022/10/12 05:37:03;;;;;;;2.85;1.40;;;;;;;12.02;97.61;101814.59;5028693;28;20042;-65
2022/10/12 05:39:28;;;;;;;6.32;2.08;;;;;;;11.94;97.00;101809.31;5021089;28;20018;-65
2022/10/12 05:41:54;;;;;;;2.55;1.30;;;;;;;11.86;97.31;101824.47;5019175;28;20128;-65
2022/10/12 05:44:20;;;;;;;1.15;1.00;;;;;;;11.76;97.22;101811.41;5026964;28;20124;-64
2022/10/12 05:46:45;;;;;;;2.50;1.52;;;;;;;11.75;96.97;101812.50;5033788;28;20129;-65
2022/10/12 05:49:11;;;;;;;1.80;1.17;;;;;;;11.76;97.33;101811.41;5033994;28;20064;-65
2022/10/12 05:51:37;;;;;;;2.47;1.45;;;;;;;11.70;96.71;101816.22;5032543;28;20499;-64
2022/10/12 05:54:03;;;;;;;3.20;1.23;;;;;;;11.66;96.67;101811.81;5022566;28;20072;-64
2022/10/12 05:56:29;;;;;;;1.40;1.00;;;;;;;11.58;96.83;101810.75;5027872;28;20057;-64
2022/10/12 05:58:57;;;;;;;3.60;1.58;;;;;;;11.57;97.10;101821.88;5029371;28;20533;-64
2022/10/12 06:01:22;;;;;;;2.05;1.45;;;;;;;11.44;96.49;101817.56;5021831;28;20494;-65
2022/10/12 06:03:48;;;;;;;2.58;1.20;;;;;;;11.42;96.95;101815.19;5032817;28;20052;-64
2022/10/12 06:06:13;;;;;;;1.80;1.45;;;;;;;11.40;96.57;101817.44;5018485;28;20042;-65
2022/10/12 06:08:39;;;;;;;3.85;1.52;;;;;;;11.39;96.36;101815.88;5014392;28;20036;-65
2022/10/12 06:11:04;;;;;;;2.83;1.85;;;;;;;11.36;96.48;101818.44;5026457;28;20506;-64
2022/10/12 06:13:30;;;;;;;12.00;3.08;;;;;;;11.32;96.40;101817.53;5032561;28;20104;-64
2022/10/12 06:15:55;;;;;;;1.80;1.55;;;;;;;11.28;96.63;101816.59;5024500;28;20406;-65
2022/10/12 06:18:21;;;;;;;2.25;1.67;;;;;;;11.24;97.21;101826.47;5021003;28;20444;-65
2022/10/12 06:20:48;;;;;;;3.45;1.75;;;;;;;11.33;97.00;101827.19;5032492;28;20029;-64
2022/10/12 06:23:14;;;;;;;4.50;1.95;;;;;;;11.34;96.97;101824.13;5033514;28;20045;-64
2022/10/12 06:25:39;;;;;;;4.82;1.95;;;;;;;11.28;97.21;101825.50;5028661;28;20552;-64
2022/10/12 06:28:05;;;;;;;3.67;1.70;;;;;;;11.35;97.76;101822.25;5031227;28;20031;-64
2022/10/12 06:30:30;;;;;;;4.57;1.70;;;;;;;11.41;96.86;101819.03;5026028;28;20116;-64
2022/10/12 06:32:56;;;;;;;2.65;1.70;;;;;;;11.43;96.98;101824.06;5032339;28;20033;-64
2022/10/12 06:35:21;;;;;;;6.32;1.52;;;;;;;11.50;97.04;101824.31;5029748;28;20079;-64
2022/10/12 06:37:49;;;;;;;2.25;1.30;;;;;;;11.47;96.70;101825.78;5033616;28;20109;-64
2022/10/12 06:40:15;;;;;;;3.00;1.65;;;;;;;11.54;96.76;101830.63;5023104;28;20502;-64
2022/10/12 06:42:40;;;;;;;2.72;1.52;;;;;;;11.58;96.14;101821.56;5032763;28;20034;-64
2022/10/12 06:45:06;;;;;;;1.63;1.15;;;;;;;11.56;96.51;101821.09;5030332;28;20451;-64
2022/10/12 06:47:32;;;;;;;4.40;1.58;;;;;;;11.62;96.35;101829.75;5028924;28;20708;-64
2022/10/12 06:49:57;;;;;;;3.65;1.13;;;;;;;11.65;96.36;101834.50;5030313;28;20155;-64
2022/10/12 06:52:23;;;;;;;3.92;1.50;;;;;;;11.73;96.25;101839.03;5021305;28;20045;-64
2022/10/12 06:54:48;;;;;;;2.95;1.88;;;;;;;11.79;96.48;101825.00;5029479;28;20044;-64
2022/10/12 06:57:14;;;;;;;3.20;1.67;;;;;;;11.87;95.88;101834.13;5019054;28;20029;-64
2022/10/12 06:59:39;;;;;;;10.80;1.90;;;;;;;12.06;95.55;101833.63;5030750;28;20116;-64
2022/10/12 07:02:05;;;;;;;3.22;1.55;;;;;;;12.19;94.52;101841.41;5026721;28;20045;-65
2022/10/12 07:04:30;;;;;;;1.15;1.05;;;;;;;12.29;94.89;101832.84;5020537;28;20049;-64
2022/10/12 07:06:56;;;;;;;4.53;1.70;;;;;;;12.33;95.18;101841.09;5033981;28;20037;-64
2022/10/12 07:09:21;;;;;;;5.90;2.00;;;;;;;12.40;94.61;101846.72;5036110;28;20059;-64
2022/10/12 07:11:47;;;;;;;2.42;1.30;;;;;;;12.41;94.91;101832.06;5036978;28;20487;-64
2022/10/12 07:14:13;;;;;;;2.60;1.73;;;;;;;12.54;95.07;101845.22;5038498;28;20548;-64
2022/10/12 07:16:39;;;;;;;3.42;1.70;;;;;;;12.61;95.11;101845.47;5040047;28;20033;-64
2022/10/12 07:19:04;;;;;;;1.98;1.42;;;;;;;12.75;96.08;101853.25;5025072;28;20375;-64
2022/10/12 07:21:30;;;;;;;2.42;1.23;;;;;;;12.91;95.71;101853.34;5036926;28;20104;-64
2022/10/12 07:23:56;;;;;;;5.18;1.48;;;;;;;13.17;95.37;101854.53;5037042;28;20084;-65
2022/10/12 07:26:21;;;;;;;4.32;1.27;;;;;;;13.35;94.71;101853.16;5032075;28;20392;-64
2022/10/12 07:28:50;;;;;;;3.60;1.52;;;;;;;13.57;94.11;101855.31;5028773;28;20029;-64
2022/10/12 07:31:16;;;;;;;2.60;1.52;;;;;;;13.75;93.56;101858.50;5018427;28;20057;-64
2022/10/12 07:33:42;;;;;;;8.90;1.83;;;;;;;13.96;92.80;101850.94;5040997;28;20095;-65
2022/10/12 07:36:08;;;;;;;6.78;1.23;;;;;;;14.17;90.58;101854.19;5041423;28;20045;-65
2022/10/12 07:38:34;;;;;;;3.45;1.40;;;;;;;14.32;89.73;101850.72;5038540;28;20037;-64
2022/10/12 07:41:03;;;;;;;2.60;0.98;;;;;;;14.34;88.66;101856.56;5023099;28;20617;-64
2022/10/12 07:43:30;;;;;;;1.42;1.13;;;;;;;14.53;87.34;101847.75;5031030;28;20052;-64
2022/10/12 07:45:56;;;;;;;5.10;1.13;;;;;;;14.65;87.80;101857.69;5033719;28;20118;-64
2022/10/12 07:48:22;;;;;;;2.17;0.98;;;;;;;14.79;85.67;101855.31;5031981;28;20056;-65
2022/10/12 07:50:48;;;;;;;3.85;1.02;;;;;;;14.84;85.77;101858.53;5034365;28;20033;-65
2022/10/12 07:53:14;;;;;;;2.15;1.00;;;;;;;14.88;85.36;101862.13;5038173;23;20024;-68
2022/10/12 07:55:39;;;;;;;1.50;0.98;;;;;;;15.17;84.91;101863.50;4992005;28;20129;-68
2022/10/12 07:58:05;;;;;;;3.03;0.88;;;;;;;15.30;84.29;101860.31;4992289;28;20118;-69
2022/10/12 08:00:31;;;;;;;1.90;0.85;;;;;;;15.30;83.23;101862.22;4965463;28;20042;-68
2022/10/12 08:02:57;;;;;;;3.15;1.50;;;;;;;15.61;82.69;101861.31;4990698;28;20458;-68
2022/10/12 08:05:23;;;;;;;6.80;1.10;;;;;;;15.50;80.25;101860.34;4972547;28;20037;-68
2022/10/12 08:07:50;;;;;;;2.97;1.23;;;;;;;15.53;80.73;101856.91;4972248;28;20047;-68
2022/10/12 08:10:17;;;;;;;4.10;0.77;;;;;;;15.60;81.02;101854.34;4973301;28;20129;-68
2022/10/12 08:12:44;;;;;;;5.07;1.20;;;;;;;15.68;80.75;101856.03;4987367;28;20475;-68
2022/10/12 08:15:10;;;;;;;3.38;1.00;;;;;;;15.96;79.10;101859.28;4978653;28;20034;-68
2022/10/12 08:17:35;;;;;;;3.95;1.15;;;;;;;15.90;79.51;101858.78;4972921;28;20043;-68
2022/10/12 08:20:03;;;;;;;2.58;1.00;;;;;;;16.04;78.90;101867.22;4978494;28;20042;-68
2022/10/12 08:22:28;;;;;;;1.08;0.95;;;;;;;16.11;78.36;101867.31;4983331;28;20044;-68
2022/10/12 08:24:54;;;;;;;4.53;0.55;;;;;;;16.11;76.61;101869.25;4977403;28;20042;-68
2022/10/12 08:27:19;;;;;;;2.95;1.15;;;;;;;15.98;76.88;101867.84;4981037;28;20067;-68
2022/10/12 08:29:45;;;;;;;2.28;0.70;;;;;;;16.08;76.01;101868.06;4970922;28;20027;-69
2022/10/12 08:32:11;;;;;;;2.95;0.98;;;;;;;15.95;75.48;101866.63;4972000;28;20027;-68
2022/10/12 08:34:36;;;;;;;4.88;0.82;;;;;;;16.04;76.16;101867.22;4975149;28;20449;-67
2022/10/12 08:37:02;;;;;;;3.60;0.88;;;;;;;16.13;75.77;101866.94;4977955;28;20442;-68
2022/10/12 08:39:27;;;;;;;0.60;0.60;;;;;;;16.16;75.90;101877.88;4970832;28;20558;-67
2022/10/12 08:42:15;;;;;;;3.67;0.80;;;;;;;16.33;74.64;101870.41;4972525;28;20042;-68
2022/10/12 08:45:25;;;;;;;7.45;0.90;;;;;;;16.44;73.74;101869.41;4970936;28;20046;-67
2022/10/12 08:47:57;;;;;;;1.40;0.68;;;;;;;16.46;71.86;101869.06;4944755;28;20118;-68
2022/10/12 08:50:32;;;;;;;4.13;0.80;;;;;;;16.49;72.01;101871.84;4969030;28;20534;-67
2022/10/12 08:53:05;;;;;;;4.03;0.80;;;;;;;16.68;71.44;101873.72;4970785;28;20402;-68
2022/10/12 08:55:35;;;;;;;3.00;1.10;;;;;;;16.88;70.79;101861.56;4975487;28;20598;-68
2022/10/12 08:58:01;;;;;;;2.65;0.95;;;;;;;17.09;70.46;101859.16;4982423;28;20031;-68
2022/10/12 09:00:29;;;;;;;5.72;0.90;;;;;;;17.24;69.59;101865.56;4980071;28;20608;-68
2022/10/12 09:03:10;;;;;;;0.95;0.60;;;;;;;17.33;69.56;101868.78;4980007;28;20403;-68
2022/10/12 09:05:56;;;;;;;3.63;1.17;;;;;;;17.59;69.07;101855.13;4983531;28;20491;-68
2022/10/12 09:08:44;;;;;;;1.83;0.75;;;;;;;17.86;66.54;101851.91;4975055;28;20396;-68
2022/10/12 09:11:23;;;;;;;4.22;0.60;;;;;;;17.90;65.68;101858.16;4973357;28;20101;-68
2022/10/12 09:14:07;;;;;;;1.52;0.40;;;;;;;18.04;64.10;101860.25;4971116;28;20428;-69
2022/10/12 09:16:38;;;;;;;1.77;0.60;;;;;;;18.07;63.68;101853.25;4971666;28;20042;-68
2022/10/12 09:19:12;;;;;;;4.25;0.82;;;;;;;17.91;63.44;101859.75;4970056;28;20070;-67
2022/10/12 09:21:40;;;;;;;2.17;0.70;;;;;;;17.92;64.10;101855.09;4982622;28;20034;-68
2022/10/12 09:24:19;;;;;;;4.88;0.57;;;;;;;18.04;64.24;101854.78;4971287;28;20036;-68
2022/10/12 09:26:49;;;;;;;2.35;0.80;;;;;;;17.89;63.69;101848.44;4978034;28;20053;-67
2022/10/12 09:29:21;;;;;;;1.00;0.75;;;;;;;17.94;63.97;101847.31;4963786;28;20042;-68
2022/10/12 09:32:10;;;;;;;2.30;0.75;;;;;;;18.00;64.69;101851.28;4977253;28;20034;-68
2022/10/12 09:34:36;;;;;;;0.82;0.40;;;;;;;18.13;64.15;101849.81;4982215;28;20501;-68
2022/10/12 09:37:03;;;;;;;1.00;0.65;;;;;;;18.14;62.91;101850.63;4975372;28;20117;-68
2022/10/12 09:39:35;;;;;;;1.08;0.70;;;;;;;18.22;62.26;101844.81;4971888;28;20105;-69
2022/10/12 09:42:01;;;;;;;2.05;0.60;;;;;;;18.17;61.31;101841.66;4979466;28;20483;-68
2022/10/12 09:44:39;;;;;;;5.10;0.60;;;;;;;18.10;61.05;101849.81;4990051;28;20101;-68
2022/10/12 09:47:22;;;;;;;2.83;0.98;;;;;;;18.02;61.67;101857.13;4981451;28;20045;-68
2022/10/12 09:49:50;;;;;;;1.85;0.70;;;;;;;18.00;61.43;101848.53;4978478;28;20046;-67
2022/10/12 09:52:21;;;;;;;1.42;0.43;;;;;;;17.89;61.66;101851.16;4980649;28;20479;-67
2022/10/12 09:54:51;;;;;;;0.68;0.40;;;;;;;17.95;62.04;101852.38;4971645;28;20042;-67
2022/10/12 09:57:24;;;;;;;5.32;0.50;;;;;;;17.91;61.84;101843.38;4974850;28;20037;-68
2022/10/12 09:59:50;;;;;;;5.72;0.90;;;;;;;17.82;61.86;101842.13;4974303;28;20062;-67
2022/10/12 10:02:18;;;;;;;0.60;0.30;;;;;;;18.01;61.67;101847.38;4974156;28;20034;-68
2022/10/12 10:04:46;;;;;;;2.30;0.65;;;;;;;18.10;61.15;101838.88;4981074;28;20046;-68
2022/10/12 10:07:24;;;;;;;1.67;0.73;;;;;;;18.11;60.45;101843.16;4971785;28;20123;-67
2022/10/12 10:10:23;;;;;;;0.73;0.35;;;;;;;18.19;59.20;101837.41;4967638;28;20450;-67
2022/10/12 10:12:54;;;;;;;2.85;0.70;;;;;;;18.23;59.38;101849.13;4967270;28;20042;-67
2022/10/12 10:15:22;;;;;;;1.08;0.63;;;;;;;18.04;59.10;101843.88;4970877;28;20114;-67
2022/10/12 10:17:54;;;;;;;0.88;0.38;;;;;;;18.10;59.75;101839.66;4971376;28;20031;-67
2022/10/12 10:20:34;;;;;;;2.47;0.63;;;;;;;18.08;57.04;101843.94;4970045;28;20035;-67
2022/10/12 10:23:02;;;;;;;3.13;0.30;;;;;;;18.07;58.09;101842.34;4967631;28;20030;-67
2022/10/12 10:25:28;;;;;;;1.77;0.60;;;;;;;18.08;59.06;101835.75;4973806;28;20526;-67
2022/10/12 10:28:22;;;;;;;8.32;0.73;;;;;;;18.18;59.45;101829.59;4969918;28;20121;-68
2022/10/12 10:31:03;;;;;;;1.30;0.40;;;;;;;18.29;59.91;101825.78;4972134;28;20115;-68
2022/10/12 10:33:34;;;;;;;1.30;0.73;;;;;;;18.26;59.03;101828.47;4975834;28;20038;-68
2022/10/12 10:36:03;;;;;;;0.40;0.30;;;;;;;18.42;58.84;101820.81;4984521;28;20039;-68
2022/10/12 10:38:50;;;;;;;2.63;0.47;;;;;;;18.49;57.99;101826.34;4970953;28;20050;-67
2022/10/12 10:41:18;;;;;;;6.22;0.57;;;;;;;18.29;56.23;101817.59;4975496;28;20034;-71
2022/10/12 10:43:48;;;;;;;4.75;0.70;;;;;;;18.39;56.67;101819.63;4973266;28;20047;-70
2022/10/12 10:46:21;;;;;;;0.73;0.45;;;;;;;18.36;57.22;101822.34;4974018;28;20046;-70
2022/10/12 10:49:00;;;;;;;1.58;0.30;;;;;;;18.25;56.15;101818.75;4973429;28;20513;-68
2022/10/12 10:51:47;;;;;;;2.30;0.50;;;;;;;18.30;56.59;101821.91;4973068;28;20043;-67
2022/10/12 10:54:20;;;;;;;2.97;0.60;;;;;;;18.32;56.25;101816.84;4974257;28;20031;-68
2022/10/12 10:56:46;;;;;;;1.70;0.50;;;;;;;18.34;55.94;101824.66;4981630;28;20030;-70
2022/10/12 10:59:33;;;;;;;1.88;0.32;;;;;;;18.42;55.51;101813.47;4977308;28;20027;-69
2022/10/12 11:02:07;;;;;;;1.92;0.40;;;;;;;18.27;54.88;101816.44;4976664;28;20403;-70
2022/10/12 11:04:40;;;;;;;1.77;0.60;;;;;;;18.42;54.51;101804.47;4984734;28;20062;-69
2022/10/12 11:07:34;;;;;;;2.10;0.45;;;;;;;18.51;54.83;101791.28;4982890;28;20488;-71
2022/10/12 11:10:23;;;;;;;0.75;0.20;;;;;;;18.56;55.34;101788.97;4973257;28;20061;-70
2022/10/12 11:12:55;;;;;;;2.35;0.40;;;;;;;18.65;53.91;101792.16;4972873;28;20504;-68
2022/10/12 11:15:27;;;;;;;0.30;0.22;;;;;;;18.78;52.43;101789.88;4973258;28;20486;-67
2022/10/12 11:18:29;;;;;;;3.67;0.20;;;;;;;18.76;51.84;101781.28;4973444;28;20110;-68
2022/10/12 11:21:03;;;;;;;2.88;0.55;;;;;;;18.54;52.21;101771.44;4978796;28;20041;-68
2022/10/12 11:23:52;;;;;;;1.80;0.40;;;;;;;18.62;52.46;101770.31;4978179;28;20432;-68
2022/10/12 11:26:27;;;;;;;1.48;0.98;;;;;;;18.59;52.05;101766.41;4986832;28;20073;-69
2022/10/12 11:28:57;;;;;;;1.67;0.75;;;;;;;18.61;52.22;101757.81;4976905;28;20039;-68
2022/10/12 11:31:36;;;;;;;1.88;0.50;;;;;;;18.62;53.26;101762.13;4971570;28;20043;-68
2022/10/12 11:34:06;;;;;;;0.65;0.20;;;;;;;18.68;53.81;101763.31;4976443;28;20026;-68
2022/10/12 11:36:36;;;;;;;5.10;0.43;;;;;;;18.81;52.34;101754.41;4987588;28;20682;-67